Amsterdam, New York
Current Conditions -  °F | °C
As of 6:55 PM on Sunday 23 Nov 2014 (Local Time) from KNY0 Reporting Station
Scattered Clouds Scattered Clouds  
Wind Chill:   Ceiling: Unl
Heat Index:   Visibility: 10mi
Dew Point:   Wind: 7mph
Humidity: 74%   Direction: 50°NE
Pressure: 30.03"   Gusts: NA
Location:  42.94°N, 74.19°W
Report Text: KNY0 232355Z AUTO 05006KT 10SM SCT060 05/01 A3003 RMK AO2 T00480005 10095 20048
Loading
Personal Weather Stations






























Interactive Weather Map New forecast layout! Learn more

10-Day Weather Forecast

Advertisements
Track Severe Weather on mobile